MaSS Merit — 3FNT3 — position and weather

sailwx.info

Track history (hours):
 
Tides and Currents Weather Stations Pressure Air Temp Water Temp Dewpoint Dewpoint Depression Visibility Wind Speed Wind Dir Waves Ship Positions

MaSS Merit

Last reported at 2016-Dec-16 20:33 UTC. Time now 2017-Jan-17 08:57 UTC.
Position N 20°10' E 110°06'.
Warning: this ship's position is 31 days out of date.

; draft 11.3 m.

Type: Cargo ship. MMSI: 355599000.

Date/timePositionNaut miles runAvg speedWind from/ knotsBaromVisibWave heightAir tempDewpointWater temp
2016-Dec-16 20:33N 20°10' E 110°06'9 9.4
2016-Dec-16 19:34N 20°12' E 110°16'55611.6
2016-Dec-14 19:30N 22°28' E 119°55'9 9.8
2016-Dec-14 18:33N 22°31' E 120°05'1111.1
2016-Dec-14 17:33N 22°33' E 120°17'  
2016-Dec-09 22:23N 22°34' E 120°20'2 0.1
2016-Dec-08 23:33N 22°33' E 120°18'3 2.5
2016-Dec-08 22:33N 22°32' E 120°16'1 0.9
2016-Dec-08 21:31N 22°31' E 120°16'0 0.0
2016-Dec-08 20:31N 22°31' E 120°16'0 0.0
2016-Dec-08 19:25N 22°31' E 120°16'0 0.0
2016-Dec-08 18:31N 22°31' E 120°16'0 0.0
2016-Dec-08 17:25N 22°31' E 120°16'0 0.0
2016-Dec-08 16:31N 22°31' E 120°16'0 0.0
2016-Dec-08 15:25N 22°31' E 120°16'0 0.0
2016-Dec-08 14:31N 22°31' E 120°16'0 0.0
2016-Dec-08 13:31N 22°31' E 120°16'  
Track history (hours):
 
Tides and Currents Weather Stations Pressure Air Temp Water Temp Dewpoint Dewpoint Depression Visibility Wind Speed Wind Dir Waves Ship Positions

MaSS Merit

Last reported at 2016-Dec-16 20:33 UTC. Time now 2017-Jan-17 08:57 UTC.
Position N 20°10' E 110°06'.
Warning: this ship's position is 31 days out of date.

; draft 11.3 m.

Type: Cargo ship. MMSI: 355599000.

Date/timePositionNaut miles runAvg speedWind from/ knotsBaromVisibWave heightAir tempDewpointWater temp
2016-Dec-16 20:33N 20°10' E 110°06'9 9.4
2016-Dec-16 19:34N 20°12' E 110°16'55611.6
2016-Dec-14 19:30N 22°28' E 119°55'9 9.8
2016-Dec-14 18:33N 22°31' E 120°05'1111.1
2016-Dec-14 17:33N 22°33' E 120°17'  
2016-Dec-09 22:23N 22°34' E 120°20'2 0.1
2016-Dec-08 23:33N 22°33' E 120°18'3 2.5
2016-Dec-08 22:33N 22°32' E 120°16'1 0.9
2016-Dec-08 21:31N 22°31' E 120°16'0 0.0
2016-Dec-08 20:31N 22°31' E 120°16'0 0.0
2016-Dec-08 19:25N 22°31' E 120°16'0 0.0
2016-Dec-08 18:31N 22°31' E 120°16'0 0.0
2016-Dec-08 17:25N 22°31' E 120°16'0 0.0
2016-Dec-08 16:31N 22°31' E 120°16'0 0.0
2016-Dec-08 15:25N 22°31' E 120°16'0 0.0
2016-Dec-08 14:31N 22°31' E 120°16'0 0.0
2016-Dec-08 13:31N 22°31' E 120°16'  

Dump ship's entire track history